Neverland Angel — IBJO — position and weather

sailwx.info

Track history (hours):
 
Tides and Currents Weather Stations Pressure Air Temp Water Temp Dewpoint Dewpoint Depression Visibility Wind Speed Wind Dir Waves Ship Positions

Neverland Angel

Last reported at 2017-Nov-17 12:40 UTC. Time now 2017-Nov-18 01:09 UTC.
Position N 44°29' E 037°22'.

Length 248 m; draft 12.4 m.

Type: Ship. MMSI: 247258200.

Date/timePositionNaut miles runAvg speedWind from/ knotsBaromVisibWave heightAir tempDewpointWater temp
2017-Nov-17 12:40N 44°29' E 037°22'212.3
2017-Nov-17 12:29N 44°29' E 037°24'612.4
2017-Nov-17 12:00N 44°32' E 037°32'5 9.7
2017-Nov-17 11:30N 44°34' E 037°38'2 2.9
2017-Nov-17 10:59N 44°35' E 037°40'1 2.1
2017-Nov-17 10:29N 44°35' E 037°42'0 0.4
2017-Nov-17 10:00N 44°35' E 037°42'0 0.7
2017-Nov-17 09:30N 44°35' E 037°42'0 0.8
2017-Nov-17 08:57N 44°36' E 037°41'0 0.7
2017-Nov-17 08:29N 44°36' E 037°41'0 0.5
2017-Nov-17 07:59N 44°36' E 037°41'0 0.4
2017-Nov-17 07:29N 44°36' E 037°42'1 1.0
2017-Nov-17 06:59N 44°35' E 037°42'1 1.5
2017-Nov-17 06:28N 44°34' E 037°41'5 0.6
2017-Nov-16 21:55N 44°38' E 037°37'0 0.0
2017-Nov-16 21:29N 44°38' E 037°37'0 0.0
2017-Nov-16 20:58N 44°38' E 037°37'0 0.0
2017-Nov-16 19:46N 44°38' E 037°37'0 0.0
2017-Nov-16 19:26N 44°38' E 037°37'0 0.0
2017-Nov-16 18:53N 44°38' E 037°37'0 0.0
2017-Nov-16 18:26N 44°38' E 037°37'0 0.0
2017-Nov-16 16:59N 44°38' E 037°37'0 0.0
2017-Nov-16 14:23N 44°38' E 037°37'0 0.0
2017-Nov-16 13:39N 44°38' E 037°37'0 0.0
2017-Nov-16 13:30N 44°38' E 037°37'8 0.8
2017-Nov-16 03:42N 44°31' E 037°32'0 0.5
2017-Nov-16 03:30N 44°31' E 037°32'1 1.4
2017-Nov-16 03:00N 44°31' E 037°31'1 2.5
2017-Nov-16 02:31N 44°31' E 037°30'2 1.2
2017-Nov-16 01:01N 44°31' E 037°32'1 1.1
2017-Nov-16 00:28N 44°31' E 037°33'1 1.3
2017-Nov-16 00:01N 44°31' E 037°34'2 3.2
2017-Nov-15 23:30N 44°31' E 037°35'4 8.0
2017-Nov-15 23:00N 44°34' E 037°40'3 5.1
2017-Nov-15 22:30N 44°36' E 037°42'0 0.9
2017-Nov-15 22:00N 44°36' E 037°43'0 1.0
2017-Nov-15 21:30N 44°37' E 037°43'0 1.0
2017-Nov-15 21:00N 44°37' E 037°43'1 1.7
2017-Nov-15 20:30N 44°36' E 037°42'1 2.0
2017-Nov-15 20:00N 44°35' E 037°42'0 0.9
2017-Nov-15 19:30N 44°35' E 037°42'1 2.5
2017-Nov-15 19:00N 44°34' E 037°40'2 4.0
2017-Nov-15 18:30N 44°34' E 037°38'5 9.1
2017-Nov-15 18:00N 44°32' E 037°32'510.9
2017-Nov-15 17:30N 44°30' E 037°25'  
Track history (hours):
 
Tides and Currents Weather Stations Pressure Air Temp Water Temp Dewpoint Dewpoint Depression Visibility Wind Speed Wind Dir Waves Ship Positions

Neverland Angel

Last reported at 2017-Nov-17 12:40 UTC. Time now 2017-Nov-18 01:09 UTC.
Position N 44°29' E 037°22'.

Length 248 m; draft 12.4 m.

Type: Ship. MMSI: 247258200.

Date/timePositionNaut miles runAvg speedWind from/ knotsBaromVisibWave heightAir tempDewpointWater temp
2017-Nov-17 12:40N 44°29' E 037°22'212.3
2017-Nov-17 12:29N 44°29' E 037°24'612.4
2017-Nov-17 12:00N 44°32' E 037°32'5 9.7
2017-Nov-17 11:30N 44°34' E 037°38'2 2.9
2017-Nov-17 10:59N 44°35' E 037°40'1 2.1
2017-Nov-17 10:29N 44°35' E 037°42'0 0.4
2017-Nov-17 10:00N 44°35' E 037°42'0 0.7
2017-Nov-17 09:30N 44°35' E 037°42'0 0.8
2017-Nov-17 08:57N 44°36' E 037°41'0 0.7
2017-Nov-17 08:29N 44°36' E 037°41'0 0.5
2017-Nov-17 07:59N 44°36' E 037°41'0 0.4
2017-Nov-17 07:29N 44°36' E 037°42'1 1.0
2017-Nov-17 06:59N 44°35' E 037°42'1 1.5
2017-Nov-17 06:28N 44°34' E 037°41'5 0.6
2017-Nov-16 21:55N 44°38' E 037°37'0 0.0
2017-Nov-16 21:29N 44°38' E 037°37'0 0.0
2017-Nov-16 20:58N 44°38' E 037°37'0 0.0
2017-Nov-16 19:46N 44°38' E 037°37'0 0.0
2017-Nov-16 19:26N 44°38' E 037°37'0 0.0
2017-Nov-16 18:53N 44°38' E 037°37'0 0.0
2017-Nov-16 18:26N 44°38' E 037°37'0 0.0
2017-Nov-16 16:59N 44°38' E 037°37'0 0.0
2017-Nov-16 14:23N 44°38' E 037°37'0 0.0
2017-Nov-16 13:39N 44°38' E 037°37'0 0.0
2017-Nov-16 13:30N 44°38' E 037°37'8 0.8
2017-Nov-16 03:42N 44°31' E 037°32'0 0.5
2017-Nov-16 03:30N 44°31' E 037°32'1 1.4
2017-Nov-16 03:00N 44°31' E 037°31'1 2.5
2017-Nov-16 02:31N 44°31' E 037°30'2 1.2
2017-Nov-16 01:01N 44°31' E 037°32'1 1.1
2017-Nov-16 00:28N 44°31' E 037°33'1 1.3
2017-Nov-16 00:01N 44°31' E 037°34'2 3.2
2017-Nov-15 23:30N 44°31' E 037°35'4 8.0
2017-Nov-15 23:00N 44°34' E 037°40'3 5.1
2017-Nov-15 22:30N 44°36' E 037°42'0 0.9
2017-Nov-15 22:00N 44°36' E 037°43'0 1.0
2017-Nov-15 21:30N 44°37' E 037°43'0 1.0
2017-Nov-15 21:00N 44°37' E 037°43'1 1.7
2017-Nov-15 20:30N 44°36' E 037°42'1 2.0
2017-Nov-15 20:00N 44°35' E 037°42'0 0.9
2017-Nov-15 19:30N 44°35' E 037°42'1 2.5
2017-Nov-15 19:00N 44°34' E 037°40'2 4.0
2017-Nov-15 18:30N 44°34' E 037°38'5 9.1
2017-Nov-15 18:00N 44°32' E 037°32'510.9
2017-Nov-15 17:30N 44°30' E 037°25'  

Dump ship's entire track history